Time;durP1;ratioP1;P1;durP2;ratioP2;P2;SDS_P1;SDS_P2;PMS_P1;PMS_P2;Temp;Humidity;BMP_temperature;BMP_pressure;BME280_temperature;BME280_humidity;BME280_pressure;Samples;Min_cycle;Max_cycle;Signal;HPM_P1;HPM_P2
2022/07/17 00:00:43;;;;;;;2.67;1.38;;;28.00;29.90;;;;;;5990271;29;20057;-72
2022/07/17 00:03:44;;;;;;;6.18;1.60;;;28.00;30.00;;;;;;5984008;29;20113;-72
2022/07/17 00:06:45;;;;;;;1.83;1.45;;;27.80;30.10;;;;;;5989407;29;20040;-72
2022/07/17 00:09:46;;;;;;;2.70;1.33;;;27.70;30.30;;;;;;5989090;29;20038;-71
2022/07/17 00:12:47;;;;;;;2.65;1.27;;;27.70;30.50;;;;;;5989661;29;20082;-72
2022/07/17 00:15:48;;;;;;;3.70;1.45;;;27.70;30.50;;;;;;5987389;29;20085;-72
2022/07/17 00:18:49;;;;;;;3.10;1.30;;;27.70;30.50;;;;;;5989638;29;20034;-72
2022/07/17 00:21:50;;;;;;;3.08;1.40;;;27.70;30.60;;;;;;5988040;29;20037;-71
2022/07/17 00:24:51;;;;;;;2.08;1.50;;;27.70;30.70;;;;;;5989404;29;20030;-72
2022/07/17 00:27:53;;;;;;;5.45;1.60;;;27.60;30.80;;;;;;5988016;29;20034;-74
2022/07/17 00:30:54;;;;;;;2.45;1.67;;;27.60;30.90;;;;;;6002903;29;20060;-71
2022/07/17 00:33:55;;;;;;;9.40;1.63;;;27.50;31.10;;;;;;5987865;29;20094;-70
2022/07/17 00:36:56;;;;;;;2.92;1.50;;;27.40;31.30;;;;;;5987290;29;20030;-70
2022/07/17 00:39:57;;;;;;;3.63;1.55;;;27.40;31.40;;;;;;5986604;29;20030;-70
2022/07/17 00:42:58;;;;;;;1.80;1.20;;;27.40;31.60;;;;;;5988321;29;20038;-71
2022/07/17 00:46:02;;;;;;;3.22;1.58;;;27.30;31.90;;;;;;5988641;29;20469;-69
2022/07/17 00:49:04;;;;;;;2.38;1.75;;;27.20;32.00;;;;;;5989898;29;20034;-69
2022/07/17 00:52:06;;;;;;;8.35;1.40;;;27.20;32.30;;;;;;5990383;29;20112;-70
2022/07/17 00:55:08;;;;;;;1.63;1.27;;;27.10;32.40;;;;;;5990875;29;20148;-70
2022/07/17 00:58:10;;;;;;;5.30;1.85;;;27.10;32.50;;;;;;5990089;29;20041;-70
2022/07/17 01:01:13;;;;;;;5.18;1.60;;;27.10;32.60;;;;;;5990319;29;20074;-70
2022/07/17 01:04:14;;;;;;;4.15;1.80;;;27.00;32.50;;;;;;5979398;29;20038;-71
2022/07/17 01:07:15;;;;;;;5.25;1.40;;;27.00;32.70;;;;;;6003999;29;20126;-70
2022/07/17 01:10:17;;;;;;;3.80;1.58;;;27.00;32.70;;;;;;5989158;29;20037;-70
2022/07/17 01:13:19;;;;;;;12.95;2.10;;;27.00;33.10;;;;;;5988891;29;20368;-70
2022/07/17 01:16:20;;;;;;;3.67;1.77;;;27.20;33.10;;;;;;5989654;29;20105;-70
2022/07/17 01:19:23;;;;;;;3.97;1.75;;;27.50;33.20;;;;;;6003575;29;20396;-70
2022/07/17 01:22:25;;;;;;;8.50;1.45;;;27.70;32.70;;;;;;6005504;29;21159;-70
2022/07/17 01:25:26;;;;;;;2.97;1.48;;;27.70;32.40;;;;;;5989338;29;20031;-69
2022/07/17 01:28:27;;;;;;;3.08;1.50;;;27.60;32.30;;;;;;5984915;29;20109;-69
2022/07/17 01:31:28;;;;;;;8.55;1.83;;;27.50;32.40;;;;;;5986952;29;20518;-70
2022/07/17 01:34:29;;;;;;;8.40;1.50;;;27.30;32.60;;;;;;5987226;29;20042;-69
2022/07/17 01:37:31;;;;;;;3.53;1.42;;;27.10;32.80;;;;;;5987301;29;20525;-69
2022/07/17 01:40:33;;;;;;;5.00;1.08;;;27.00;33.00;;;;;;5986897;29;20368;-69
2022/07/17 01:43:34;;;;;;;1.70;1.30;;;26.90;33.10;;;;;;6003393;29;20372;-70
2022/07/17 01:46:35;;;;;;;2.55;1.30;;;26.80;33.20;;;;;;5989428;29;20034;-71
2022/07/17 01:49:36;;;;;;;3.55;1.63;;;26.70;33.30;;;;;;6003836;29;20030;-71
2022/07/17 01:52:40;;;;;;;3.05;1.52;;;26.70;33.50;;;;;;5988821;29;20073;-70
2022/07/17 01:55:41;;;;;;;2.15;1.30;;;26.60;33.50;;;;;;6003157;29;20464;-71
2022/07/17 01:58:42;;;;;;;4.63;1.50;;;26.60;33.60;;;;;;5989275;29;20078;-70
2022/07/17 02:01:43;;;;;;;4.70;1.50;;;26.50;33.50;;;;;;5988407;29;20064;-69
2022/07/17 02:04:45;;;;;;;4.55;1.58;;;26.50;33.50;;;;;;5988915;29;20589;-69
2022/07/17 02:07:46;;;;;;;5.15;1.48;;;26.50;33.60;;;;;;5988964;29;20468;-70
2022/07/17 02:10:47;;;;;;;6.75;1.73;;;26.50;33.70;;;;;;6003426;29;20113;-70
2022/07/17 02:13:48;;;;;;;3.28;1.67;;;26.60;33.80;;;;;;5989654;29;20027;-69
2022/07/17 02:16:50;;;;;;;3.33;1.45;;;26.60;33.80;;;;;;5991040;29;20049;-69
2022/07/17 02:19:51;;;;;;;10.85;1.50;;;26.70;33.80;;;;;;5988477;29;20051;-69
2022/07/17 02:22:52;;;;;;;2.97;1.50;;;26.80;33.70;;;;;;5987372;29;20215;-69
2022/07/17 02:25:53;;;;;;;1.52;1.25;;;26.80;33.60;;;;;;5986359;29;20045;-69
2022/07/17 02:28:54;;;;;;;8.48;1.60;;;26.70;33.60;;;;;;5986806;29;20114;-69
2022/07/17 02:31:55;;;;;;;1.92;1.45;;;26.70;33.80;;;;;;5987254;29;20031;-69
2022/07/17 02:34:56;;;;;;;2.60;1.55;;;26.70;34.10;;;;;;5985533;29;20039;-69
2022/07/17 02:37:58;;;;;;;1.90;1.40;;;26.60;34.40;;;;;;5996411;29;20046;-70
2022/07/17 02:40:59;;;;;;;1.58;1.40;;;26.50;34.50;;;;;;6002973;29;20491;-70
2022/07/17 02:44:00;;;;;;;2.05;1.33;;;26.50;34.80;;;;;;5990532;29;20045;-70
2022/07/17 02:47:01;;;;;;;1.67;1.30;;;26.50;34.80;;;;;;5992140;29;20037;-70
2022/07/17 02:50:05;;;;;;;12.98;2.08;;;26.40;34.90;;;;;;5992438;29;20069;-70
2022/07/17 02:53:06;;;;;;;3.17;1.70;;;26.30;35.00;;;;;;5992429;29;20046;-70
2022/07/17 02:56:07;;;;;;;2.40;1.60;;;26.30;35.40;;;;;;5991434;29;20038;-70
2022/07/17 02:59:08;;;;;;;3.00;1.50;;;26.20;35.50;;;;;;5992658;29;20034;-70
2022/07/17 03:02:10;;;;;;;2.42;1.70;;;26.10;35.70;;;;;;5992431;29;20057;-70
2022/07/17 03:05:12;;;;;;;3.55;1.60;;;26.00;35.90;;;;;;5990433;29;20591;-70
2022/07/17 03:08:14;;;;;;;1.40;1.30;;;25.90;36.10;;;;;;5991402;29;20026;-70
2022/07/17 03:11:15;;;;;;;2.38;1.33;;;25.90;36.20;;;;;;5992216;29;20030;-69
2022/07/17 03:14:16;;;;;;;2.80;1.42;;;25.80;36.20;;;;;;5990588;29;20027;-70
2022/07/17 03:17:17;;;;;;;3.22;1.85;;;25.70;36.20;;;;;;6005856;29;20031;-70
2022/07/17 03:20:18;;;;;;;2.90;1.63;;;25.70;36.60;;;;;;5989217;29;20034;-69
2022/07/17 03:23:19;;;;;;;3.45;1.75;;;25.70;36.80;;;;;;5989580;29;20037;-70
2022/07/17 03:26:20;;;;;;;7.40;1.55;;;25.70;36.90;;;;;;5988563;29;20034;-70
2022/07/17 03:29:22;;;;;;;5.20;1.50;;;25.70;36.90;;;;;;5989676;29;20504;-70
2022/07/17 03:32:23;;;;;;;4.40;1.67;;;25.70;37.10;;;;;;5990248;29;20159;-70
2022/07/17 03:35:24;;;;;;;4.30;1.67;;;25.60;37.20;;;;;;6005720;29;20480;-70
2022/07/17 03:38:25;;;;;;;7.70;2.10;;;25.60;37.30;;;;;;5991440;29;20161;-70
2022/07/17 03:41:26;;;;;;;4.45;1.58;;;25.50;37.40;;;;;;5991319;29;20037;-70
2022/07/17 03:44:28;;;;;;;2.55;1.60;;;25.50;37.50;;;;;;5991564;29;20097;-70
2022/07/17 03:47:29;;;;;;;3.20;1.95;;;25.40;37.60;;;;;;5983636;29;20054;-70
2022/07/17 03:50:30;;;;;;;3.65;1.83;;;25.40;37.70;;;;;;5991303;29;20052;-69
2022/07/17 03:53:31;;;;;;;4.22;1.80;;;25.30;37.80;;;;;;5991047;29;20042;-70
2022/07/17 03:56:33;;;;;;;3.67;1.70;;;25.30;37.90;;;;;;5991038;29;20038;-70
2022/07/17 03:59:34;;;;;;;8.60;1.60;;;25.30;38.00;;;;;;5980807;29;20038;-69
2022/07/17 04:02:35;;;;;;;4.03;1.67;;;25.30;38.00;;;;;;5991605;29;20600;-70
2022/07/17 04:05:35;;;;;;;6.63;2.00;;;25.30;38.00;;;;;;5990720;29;20034;-70
2022/07/17 04:08:36;;;;;;;4.68;2.08;;;25.30;38.00;;;;;;5990392;29;20049;-70
2022/07/17 04:11:37;;;;;;;2.08;1.38;;;25.30;38.10;;;;;;5989910;29;20038;-70
2022/07/17 04:14:38;;;;;;;2.42;1.60;;;25.30;38.80;;;;;;5988968;29;20480;-70
2022/07/17 04:17:39;;;;;;;2.78;1.48;;;25.30;38.20;;;;;;6002771;29;20049;-70
2022/07/17 04:20:39;;;;;;;6.65;1.60;;;25.20;38.40;;;;;;5987273;29;20042;-70
2022/07/17 04:23:40;;;;;;;3.13;2.00;;;25.20;38.50;;;;;;5979044;29;20066;-70
2022/07/17 04:26:41;;;;;;;4.60;2.47;;;25.20;38.60;;;;;;5988559;29;20034;-70
2022/07/17 04:29:43;;;;;;;2.95;1.60;;;25.10;38.70;;;;;;5990289;29;20046;-70
2022/07/17 04:32:44;;;;;;;4.30;1.85;;;25.10;38.90;;;;;;6004993;29;20094;-70
2022/07/17 04:35:45;;;;;;;6.75;1.90;;;25.00;38.90;;;;;;5989491;29;20042;-70
2022/07/17 04:38:45;;;;;;;8.43;1.77;;;25.00;39.00;;;;;;5990614;29;20046;-70
2022/07/17 04:41:46;;;;;;;2.55;1.85;;;25.00;39.10;;;;;;5989289;29;20035;-70
2022/07/17 04:44:47;;;;;;;5.88;1.92;;;25.00;39.10;;;;;;5990301;29;20038;-70
2022/07/17 04:47:48;;;;;;;6.82;2.10;;;25.00;39.20;;;;;;6004439;29;20537;-70
2022/07/17 04:50:49;;;;;;;6.93;2.33;;;25.00;39.30;;;;;;5989727;29;20022;-69
2022/07/17 04:53:50;;;;;;;7.00;2.70;;;25.00;39.30;;;;;;5990155;29;20050;-70
2022/07/17 04:56:51;;;;;;;4.15;2.03;;;25.00;39.40;;;;;;5990538;29;20354;-71
2022/07/17 04:59:52;;;;;;;3.70;1.92;;;25.00;39.40;;;;;;5990373;29;20045;-70
2022/07/17 05:02:53;;;;;;;7.90;1.80;;;25.00;39.50;;;;;;5990554;29;20044;-70
2022/07/17 05:05:54;;;;;;;8.10;2.30;;;25.00;39.40;;;;;;5988091;29;20083;-70
2022/07/17 05:08:55;;;;;;;13.23;2.25;;;25.00;39.60;;;;;;5988606;29;20038;-70
2022/07/17 05:11:56;;;;;;;4.00;1.85;;;25.00;39.60;;;;;;5987223;29;20030;-69
2022/07/17 05:14:57;;;;;;;9.82;2.47;;;25.00;39.60;;;;;;5987751;29;20034;-70
2022/07/17 05:17:58;;;;;;;2.72;1.88;;;25.10;40.30;;;;;;6001963;29;20058;-69
2022/07/17 05:20:59;;;;;;;4.35;2.10;;;25.10;39.70;;;;;;5987409;29;20030;-69
2022/07/17 05:24:00;;;;;;;7.18;2.20;;;25.10;39.70;;;;;;5988397;29;20031;-69
2022/07/17 05:27:01;;;;;;;8.52;1.83;;;25.10;39.70;;;;;;5989465;29;20058;-69
2022/07/17 05:30:02;;;;;;;3.83;1.70;;;25.10;39.70;;;;;;5989314;29;20109;-69
2022/07/17 05:33:03;;;;;;;2.80;2.03;;;25.20;39.70;;;;;;5989802;29;20110;-69
2022/07/17 05:36:05;;;;;;;4.28;2.00;;;25.30;39.70;;;;;;5985432;29;20406;-69
2022/07/17 05:39:06;;;;;;;5.18;2.10;;;25.30;39.60;;;;;;5989819;29;20031;-69
2022/07/17 05:42:07;;;;;;;4.93;2.35;;;25.30;39.50;;;;;;5991709;29;20038;-69
2022/07/17 05:45:08;;;;;;;5.10;2.17;;;25.40;39.60;;;;;;5990557;29;20117;-69
2022/07/17 05:48:09;;;;;;;12.27;2.13;;;25.40;39.50;;;;;;5989262;29;20034;-69
2022/07/17 05:51:10;;;;;;;4.10;2.20;;;25.40;39.50;;;;;;5988854;29;20038;-69
2022/07/17 05:54:11;;;;;;;2.97;1.73;;;25.40;39.50;;;;;;5988881;29;20379;-69
2022/07/17 05:57:11;;;;;;;3.03;1.75;;;25.50;39.50;;;;;;5988999;29;20471;-69
2022/07/17 06:00:13;;;;;;;2.13;1.70;;;25.50;39.40;;;;;;5988897;29;20038;-69
2022/07/17 06:03:14;;;;;;;4.75;1.88;;;25.50;39.30;;;;;;5988750;29;20100;-70
2022/07/17 06:06:14;;;;;;;7.43;2.20;;;25.60;39.40;;;;;;5986736;29;20657;-69
2022/07/17 06:09:15;;;;;;;14.77;2.17;;;25.60;39.20;;;;;;6001918;29;20133;-69
2022/07/17 06:12:16;;;;;;;5.25;2.08;;;25.70;38.90;;;;;;6000829;29;20060;-69
2022/07/17 06:15:17;;;;;;;3.55;2.00;;;25.80;38.60;;;;;;5986730;29;20062;-69
2022/07/17 06:18:18;;;;;;;5.20;1.77;;;25.90;38.60;;;;;;5986903;29;20062;-69
2022/07/17 06:21:19;;;;;;;2.83;1.88;;;26.00;38.50;;;;;;5992396;29;20149;-68
2022/07/17 06:24:20;;;;;;;6.30;2.70;;;26.00;38.30;;;;;;6008027;29;20054;-69
2022/07/17 06:27:21;;;;;;;2.85;1.98;;;26.20;38.20;;;;;;5992563;29;20046;-69
2022/07/17 06:30:22;;;;;;;2.85;1.85;;;26.30;38.00;;;;;;5993041;29;20029;-69
2022/07/17 06:33:22;;;;;;;4.13;2.33;;;26.40;37.90;;;;;;6007776;29;20152;-70
2022/07/17 06:36:23;;;;;;;3.55;1.98;;;26.60;37.70;;;;;;5992447;29;20038;-70
2022/07/17 06:39:24;;;;;;;7.03;2.03;;;26.90;37.30;;;;;;5993099;29;20107;-69
2022/07/17 06:42:25;;;;;;;4.40;2.10;;;27.10;36.90;;;;;;5991771;29;20045;-70
2022/07/17 06:45:26;;;;;;;6.00;2.33;;;27.20;36.60;;;;;;5992591;29;20106;-70
2022/07/17 06:48:27;;;;;;;4.07;2.08;;;27.20;36.30;;;;;;5992237;29;20048;-69
2022/07/17 06:51:27;;;;;;;6.43;2.08;;;27.30;36.20;;;;;;5992474;29;20425;-69
2022/07/17 06:54:28;;;;;;;6.43;2.22;;;27.30;35.90;;;;;;5992485;29;20069;-70
2022/07/17 06:57:29;;;;;;;5.78;2.65;;;27.30;35.90;;;;;;5990060;29;20085;-70
2022/07/17 07:00:30;;;;;;;5.32;2.58;;;27.40;35.90;;;;;;5990630;29;20038;-70
2022/07/17 07:03:31;;;;;;;6.65;2.40;;;27.40;35.80;;;;;;6004458;29;20027;-69
2022/07/17 07:06:32;;;;;;;4.00;1.85;;;27.50;35.60;;;;;;5989260;29;20034;-72
2022/07/17 07:09:33;;;;;;;2.22;1.70;;;27.50;35.50;;;;;;5989968;29;20372;-70
2022/07/17 07:12:34;;;;;;;2.97;1.83;;;27.70;35.30;;;;;;5989901;29;20023;-70
2022/07/17 07:15:35;;;;;;;3.47;1.90;;;27.70;34.90;;;;;;5987851;29;20065;-70
2022/07/17 07:18:36;;;;;;;3.38;2.00;;;27.80;34.60;;;;;;5992055;29;20121;-71
2022/07/17 07:21:37;;;;;;;3.42;1.77;;;27.90;34.30;;;;;;5991868;29;20034;-69
2022/07/17 07:24:38;;;;;;;3.83;2.28;;;28.00;34.20;;;;;;5990580;29;20383;-70
2022/07/17 07:27:39;;;;;;;4.95;2.10;;;28.20;33.90;;;;;;5988863;29;20030;-70
2022/07/17 07:30:40;;;;;;;5.85;1.95;;;28.30;33.60;;;;;;5991318;29;20027;-70
2022/07/17 07:33:41;;;;;;;5.68;1.80;;;28.40;33.30;;;;;;5992416;29;20113;-70
2022/07/17 07:36:42;;;;;;;3.67;1.92;;;28.50;32.90;;;;;;5991271;29;20062;-70
2022/07/17 07:39:43;;;;;;;7.07;1.75;;;28.50;32.80;;;;;;5991676;29;20129;-70
2022/07/17 07:42:44;;;;;;;6.05;2.58;;;28.50;32.60;;;;;;6005773;29;20034;-70
2022/07/17 07:45:45;;;;;;;8.18;2.08;;;28.60;32.60;;;;;;5991088;29;20524;-70
2022/07/17 07:48:46;;;;;;;3.90;1.95;;;28.70;32.60;;;;;;5990919;29;20042;-70
2022/07/17 07:51:47;;;;;;;3.80;1.90;;;28.80;32.50;;;;;;5990468;29;20369;-70
2022/07/17 07:54:48;;;;;;;3.72;1.77;;;28.90;32.40;;;;;;5989724;29;20125;-70
2022/07/17 07:57:49;;;;;;;3.75;1.83;;;28.90;32.30;;;;;;5989790;29;20030;-69
2022/07/17 08:00:50;;;;;;;11.77;1.80;;;29.10;32.30;;;;;;5989150;29;20034;-70
2022/07/17 08:03:51;;;;;;;3.40;2.13;;;29.20;32.30;;;;;;5986024;29;20039;-69
2022/07/17 08:06:52;;;;;;;5.57;2.15;;;29.40;32.00;;;;;;5988744;29;20042;-68
2022/07/17 08:09:54;;;;;;;9.95;1.48;;;29.50;31.60;;;;;;6003051;29;20501;-68
2022/07/17 08:12:54;;;;;;;5.03;2.15;;;29.60;31.40;;;;;;5989524;29;20037;-68
2022/07/17 08:15:55;;;;;;;4.95;1.73;;;29.70;31.20;;;;;;5989042;29;20023;-68
2022/07/17 08:18:56;;;;;;;3.05;1.55;;;29.90;31.20;;;;;;6005009;29;20449;-69
2022/07/17 08:21:57;;;;;;;2.72;1.95;;;30.00;30.80;;;;;;5990325;29;20042;-68
2022/07/17 08:24:58;;;;;;;3.33;1.77;;;30.20;30.60;;;;;;5989963;29;20453;-68
2022/07/17 08:27:59;;;;;;;4.47;1.98;;;30.20;30.20;;;;;;5990819;29;20030;-69
2022/07/17 08:31:00;;;;;;;5.03;1.80;;;30.30;30.00;;;;;;5989808;29;20038;-68
2022/07/17 08:34:01;;;;;;;3.47;2.05;;;30.30;30.00;;;;;;5990473;29;20042;-68
2022/07/17 08:37:03;;;;;;;4.03;1.77;;;30.40;30.00;;;;;;5989480;29;20038;-68
2022/07/17 08:40:05;;;;;;;4.15;1.40;;;30.50;30.00;;;;;;5989869;29;20042;-68
2022/07/17 08:43:07;;;;;;;2.85;1.75;;;30.60;29.90;;;;;;5989889;29;20037;-68
2022/07/17 08:46:12;;;;;;;5.28;1.90;;;30.70;29.80;;;;;;6003626;29;20034;-69
2022/07/17 08:49:19;;;;;;;2.35;1.83;;;30.80;29.50;;;;;;5989505;29;20457;-70
2022/07/17 08:52:20;;;;;;;2.20;1.95;;;30.90;29.00;;;;;;5985285;29;20129;-69
2022/07/17 08:55:21;;;;;;;6.72;2.15;;;31.00;28.90;;;;;;5987466;29;20042;-68
2022/07/17 08:58:22;;;;;;;4.70;1.75;;;31.00;29.00;;;;;;6002910;29;20058;-69
2022/07/17 09:01:24;;;;;;;2.90;1.73;;;31.10;29.00;;;;;;5988473;29;20121;-69
2022/07/17 09:04:25;;;;;;;5.13;1.70;;;31.10;28.90;;;;;;5988332;29;20042;-68
2022/07/17 09:07:26;;;;;;;4.28;2.58;;;31.20;29.00;;;;;;5988295;29;20041;-67
2022/07/17 09:10:32;;;;;;;3.10;2.17;;;31.20;29.00;;;;;;5988546;29;20109;-67
2022/07/17 09:13:33;;;;;;;4.82;2.53;;;31.30;29.10;;;;;;5990009;29;20133;-67
2022/07/17 09:16:47;;;;;;;3.97;2.47;;;31.40;29.00;;;;;;5989685;29;20034;-67
2022/07/17 09:19:48;;;;;;;6.03;2.67;;;31.50;28.90;;;;;;5985743;29;20065;-67
2022/07/17 09:23:16;;;;;;;5.20;2.17;;;31.60;28.80;;;;;;5988612;29;20034;-67
2022/07/17 09:26:17;;;;;;;4.00;2.20;;;31.70;28.70;;;;;;5981102;29;20050;-68
2022/07/17 09:29:18;;;;;;;6.70;1.80;;;31.80;28.60;;;;;;5989286;29;20418;-67
2022/07/17 09:32:20;;;;;;;5.95;2.40;;;31.90;28.50;;;;;;5988586;29;20071;-68
2022/07/17 09:35:22;;;;;;;3.20;2.30;;;32.00;28.30;;;;;;5988490;29;20038;-68
2022/07/17 09:38:37;;;;;;;3.13;1.88;;;32.00;28.20;;;;;;5988994;29;20034;-68
2022/07/17 09:41:38;;;;;;;7.15;2.35;;;32.00;28.30;;;;;;5989182;29;20070;-69
2022/07/17 09:44:39;;;;;;;3.95;2.30;;;32.00;28.20;;;;;;5989477;29;20041;-67
2022/07/17 09:47:40;;;;;;;4.15;1.90;;;32.00;28.20;;;;;;5987937;29;20101;-68
2022/07/17 09:50:41;;;;;;;2.78;1.55;;;32.10;28.10;;;;;;5983453;29;20241;-68
2022/07/17 09:53:46;;;;;;;2.50;1.90;;;32.20;28.10;;;;;;5989838;29;20110;-69
2022/07/17 09:56:51;;;;;;;3.92;1.73;;;32.30;28.20;;;;;;5994105;29;20095;-69
2022/07/17 09:59:54;;;;;;;5.60;2.40;;;32.40;28.10;;;;;;5993976;29;20153;-69
2022/07/17 10:02:56;;;;;;;2.97;2.10;;;32.50;28.00;;;;;;5993304;29;20035;-69
2022/07/17 10:05:57;;;;;;;3.20;2.00;;;32.60;28.00;;;;;;5995578;29;20444;-69
2022/07/17 10:08:58;;;;;;;8.02;2.83;;;32.60;27.80;;;;;;5994347;29;20109;-69
2022/07/17 10:12:00;;;;;;;5.35;2.10;;;32.60;27.70;;;;;;5996271;29;20030;-69
2022/07/17 10:15:01;;;;;;;3.38;1.90;;;32.60;27.70;;;;;;5992397;29;20031;-69
2022/07/17 10:18:07;;;;;;;11.35;2.20;;;32.70;27.60;;;;;;5990315;29;20038;-69
2022/07/17 10:21:14;;;;;;;3.35;2.05;;;32.80;27.50;;;;;;5996037;29;20157;-68
2022/07/17 10:24:15;;;;;;;3.47;1.90;;;32.90;27.70;;;;;;5995920;29;20040;-70
2022/07/17 10:27:24;;;;;;;5.43;2.55;;;32.90;27.50;;;;;;5995477;29;20382;-69
2022/07/17 10:30:27;;;;;;;2.95;2.00;;;32.90;27.40;;;;;;5995201;29;20487;-69
2022/07/17 10:33:28;;;;;;;12.05;1.88;;;32.90;27.30;;;;;;5995534;29;20057;-70
2022/07/17 10:36:37;;;;;;;7.50;2.55;;;32.90;27.50;;;;;;5995853;29;20038;-70
2022/07/17 10:39:37;;;;;;;10.38;2.28;;;32.90;27.70;;;;;;5996110;29;20136;-70
2022/07/17 10:42:43;;;;;;;6.90;2.22;;;33.00;27.70;;;;;;6009187;29;20363;-68
2022/07/17 10:45:46;;;;;;;9.07;2.63;;;33.00;27.90;;;;;;5993694;29;20031;-70
2022/07/17 10:48:48;;;;;;;26.08;2.40;;;33.00;28.00;;;;;;5993676;29;20030;-70
2022/07/17 10:51:52;;;;;;;4.78;1.90;;;33.00;27.80;;;;;;5992320;29;20058;-71
2022/07/17 10:54:53;;;;;;;6.05;2.20;;;33.10;27.60;;;;;;5993522;29;20588;-71
2022/07/17 10:57:55;;;;;;;3.13;2.28;;;33.10;27.70;;;;;;5993694;29;20030;-70
2022/07/17 11:01:01;;;;;;;2.80;1.98;;;33.10;27.30;;;;;;5993179;29;20026;-76
2022/07/17 11:04:02;;;;;;;2.03;1.70;;;33.20;27.30;;;;;;5993118;29;20030;-70
2022/07/17 11:07:06;;;;;;;11.63;2.30;;;33.10;27.40;;;;;;5991372;29;20377;-71
2022/07/17 11:10:13;;;;;;;3.65;2.30;;;33.60;27.30;;;;;;5991019;29;20046;-70
2022/07/17 11:13:16;;;;;;;5.65;2.25;;;34.70;26.20;;;;;;5991914;29;20046;-70
2022/07/17 11:16:28;;;;;;;3.58;1.90;;;35.80;25.10;;;;;;5991047;29;20388;-72
2022/07/17 11:19:42;;;;;;;2.65;1.73;;;36.70;24.30;;;;;;5990119;29;20027;-72
2022/07/17 11:22:43;;;;;;;6.85;1.98;;;37.30;23.80;;;;;;5990145;29;20469;-71
2022/07/17 11:26:01;;;;;;;2.72;1.70;;;37.70;23.50;;;;;;5991158;29;20031;-73
2022/07/17 11:29:02;;;;;;;;;;;37.90;23.30;;;;;;5986025;29;20583;-70
2022/07/17 11:32:03;;;;;;;6.47;2.67;;;38.20;23.10;;;;;;5991455;29;19969;-70
2022/07/17 11:35:18;;;;;;;5.28;2.22;;;38.40;23.00;;;;;;6005839;29;20026;-70
2022/07/17 11:38:28;;;;;;;3.53;1.73;;;38.60;22.80;;;;;;5990590;29;20038;-71
2022/07/17 11:41:43;;;;;;;10.98;1.98;;;38.70;22.70;;;;;;5989734;29;20034;-71
2022/07/17 11:44:44;;;;;;;2.55;1.70;;;38.70;22.60;;;;;;5984087;29;20360;-71
2022/07/17 11:47:48;;;;;;;2.80;1.77;;;38.70;22.70;;;;;;6003037;29;20038;-71
2022/07/17 11:50:54;;;;;;;4.15;1.80;;;38.80;22.70;;;;;;5988621;29;20060;-71
2022/07/17 11:54:04;;;;;;;2.75;1.75;;;38.70;22.60;;;;;;5999784;29;20054;-71
2022/07/17 11:57:06;;;;;;;2.92;1.67;;;38.80;22.60;;;;;;5989899;29;20472;-70
2022/07/17 12:00:10;;;;;;;2.05;1.77;;;38.90;22.50;;;;;;5990229;29;20030;-71
2022/07/17 12:03:12;;;;;;;3.28;1.88;;;39.00;22.40;;;;;;5990557;29;20394;-71
2022/07/17 12:06:23;;;;;;;2.20;1.95;;;38.80;22.70;;;;;;5990123;29;20041;-71
2022/07/17 12:09:29;;;;;;;2.72;1.95;;;38.60;22.80;;;;;;6005261;29;20026;-70
2022/07/17 12:12:30;;;;;;;2.58;1.80;;;38.60;22.90;;;;;;5990668;29;20034;-71
2022/07/17 12:15:38;;;;;;;4.38;1.77;;;38.50;23.40;;;;;;5990204;29;20388;-71
2022/07/17 12:18:40;;;;;;;2.22;1.52;;;38.70;22.70;;;;;;5989114;29;20456;-72
2022/07/17 12:21:54;;;;;;;5.25;2.00;;;38.70;22.80;;;;;;5984756;29;20075;-71
2022/07/17 12:24:55;;;;;;;8.73;2.00;;;38.80;22.70;;;;;;5989797;29;20076;-72
2022/07/17 12:27:56;;;;;;;2.85;1.60;;;39.00;22.50;;;;;;5990632;29;20443;-72
2022/07/17 12:30:57;;;;;;;2.53;1.70;;;38.90;22.50;;;;;;5984202;29;20042;-71
2022/07/17 12:33:58;;;;;;;2.90;1.95;;;38.90;22.60;;;;;;6004229;29;20074;-71
2022/07/17 12:36:59;;;;;;;6.93;2.10;;;38.70;22.80;;;;;;5989409;29;20038;-71
2022/07/17 12:40:00;;;;;;;3.85;1.95;;;38.70;22.80;;;;;;5987136;29;20042;-71
2022/07/17 12:43:00;;;;;;;3.42;2.08;;;38.80;22.50;;;;;;5988997;29;20351;-72
2022/07/17 12:46:01;;;;;;;3.55;2.08;;;39.00;22.40;;;;;;5987641;29;20046;-71
2022/07/17 12:49:02;;;;;;;5.07;1.77;;;39.20;22.40;;;;;;5986827;29;20043;-71
2022/07/17 12:52:03;;;;;;;5.00;1.70;;;39.10;22.30;;;;;;5987542;29;20050;-71
2022/07/17 12:55:06;;;;;;;3.53;2.03;;;39.00;22.40;;;;;;5989593;29;20030;-73
2022/07/17 12:58:07;;;;;;;6.82;1.60;;;38.90;22.40;;;;;;5989495;29;20369;-71
2022/07/17 13:01:08;;;;;;;3.72;1.83;;;39.00;22.30;;;;;;5987815;29;20042;-72
2022/07/17 13:04:09;;;;;;;2.72;1.58;;;39.30;22.10;;;;;;5989565;29;20046;-71
2022/07/17 13:07:10;;;;;;;7.20;2.20;;;39.60;21.90;;;;;;5973488;29;20035;-71
2022/07/17 13:10:11;;;;;;;3.70;2.08;;;39.60;21.80;;;;;;5989882;29;20037;-71
2022/07/17 13:13:12;;;;;;;2.28;1.75;;;39.60;21.80;;;;;;5989183;29;20364;-71
2022/07/17 13:16:13;;;;;;;4.13;1.85;;;39.80;21.70;;;;;;5989462;29;20046;-71
2022/07/17 13:19:14;;;;;;;3.80;2.10;;;39.90;21.60;;;;;;6003464;29;20030;-71
2022/07/17 13:22:15;;;;;;;3.53;1.85;;;40.20;21.40;;;;;;6003797;29;20042;-71
2022/07/17 13:25:16;;;;;;;4.63;2.42;;;40.70;21.00;;;;;;5989988;29;20045;-71
2022/07/17 13:28:16;;;;;;;3.28;2.13;;;40.90;20.80;;;;;;5988469;29;20062;-71
2022/07/17 13:31:18;;;;;;;4.88;1.90;;;41.20;20.60;;;;;;6002787;29;20103;-72
2022/07/17 13:34:19;;;;;;;3.20;2.00;;;41.50;20.30;;;;;;5988882;29;20541;-72
2022/07/17 13:37:20;;;;;;;4.45;2.03;;;41.90;20.00;;;;;;6000446;29;20363;-73
2022/07/17 13:40:23;;;;;;;3.65;2.17;;;42.30;19.60;;;;;;5986642;29;20081;-73
2022/07/17 13:43:24;;;;;;;2.20;1.70;;;42.80;19.30;;;;;;5963188;29;20038;-73
2022/07/17 13:46:25;;;;;;;2.95;1.70;;;43.00;19.00;;;;;;5987213;29;20365;-73
2022/07/17 13:49:26;;;;;;;4.05;2.00;;;43.20;18.80;;;;;;6001852;29;20126;-73
2022/07/17 13:52:27;;;;;;;6.97;2.33;;;43.10;18.80;;;;;;5987892;29;20042;-73
2022/07/17 13:55:28;;;;;;;3.25;1.67;;;43.30;18.70;;;;;;5988450;29;20445;-73
2022/07/17 13:58:31;;;;;;;2.58;1.88;;;43.80;18.40;;;;;;5989060;29;20073;-73
2022/07/17 14:01:32;;;;;;;4.57;1.80;;;44.00;18.20;;;;;;5987971;29;20031;-73
2022/07/17 14:04:32;;;;;;;3.30;1.90;;;44.30;18.10;;;;;;5988374;29;20487;-73
2022/07/17 14:07:34;;;;;;;5.05;2.15;;;44.70;17.70;;;;;;6003215;29;20046;-73
2022/07/17 14:10:35;;;;;;;3.05;1.65;;;44.80;17.60;;;;;;6002760;29;20030;-73
2022/07/17 14:13:36;;;;;;;3.10;1.90;;;44.90;17.60;;;;;;5987739;29;20039;-73
2022/07/17 14:16:37;;;;;;;5.82;1.73;;;44.90;17.60;;;;;;5987938;29;20384;-73
2022/07/17 14:19:38;;;;;;;3.80;1.80;;;44.90;17.50;;;;;;5982199;29;20103;-73
2022/07/17 14:22:39;;;;;;;2.40;1.73;;;44.80;17.60;;;;;;5987865;29;20038;-74
2022/07/17 14:25:40;;;;;;;3.22;1.70;;;44.90;17.60;;;;;;6003084;29;20046;-74
2022/07/17 14:28:41;;;;;;;3.97;1.80;;;45.00;17.40;;;;;;5987258;29;20026;-75
2022/07/17 14:31:42;;;;;;;4.85;1.77;;;44.90;17.40;;;;;;5986149;29;20129;-74
2022/07/17 14:34:42;;;;;;;2.60;1.63;;;44.70;17.50;;;;;;5986343;29;20037;-74
2022/07/17 14:37:44;;;;;;;4.10;1.98;;;44.80;17.50;;;;;;5986160;29;20026;-74
2022/07/17 14:40:44;;;;;;;3.55;1.85;;;44.80;17.50;;;;;;5989228;29;20038;-73
2022/07/17 14:43:45;;;;;;;2.25;1.58;;;44.70;17.60;;;;;;6004358;29;20171;-74
2022/07/17 14:46:46;;;;;;;2.88;1.67;;;44.70;17.50;;;;;;5989262;29;20034;-74
2022/07/17 14:49:47;;;;;;;4.95;1.50;;;44.70;17.50;;;;;;5991751;29;20517;-73
2022/07/17 14:52:48;;;;;;;3.72;1.88;;;44.60;17.50;;;;;;6006461;29;20051;-72
2022/07/17 14:55:49;;;;;;;3.67;1.70;;;44.50;17.60;;;;;;5992373;29;20037;-73
2022/07/17 14:58:50;;;;;;;2.38;1.65;;;44.60;17.60;;;;;;6006854;29;20368;-73
2022/07/17 15:01:51;;;;;;;2.72;1.73;;;44.70;17.50;;;;;;5991312;29;20038;-73
2022/07/17 15:04:52;;;;;;;2.22;1.88;;;44.40;17.60;;;;;;6005690;29;20038;-73
2022/07/17 15:07:53;;;;;;;5.40;2.03;;;44.10;17.70;;;;;;5992059;29;20428;-73
2022/07/17 15:10:54;;;;;;;4.38;2.33;;;43.80;17.90;;;;;;5991804;29;20460;-73
2022/07/17 15:13:55;;;;;;;3.72;1.63;;;43.20;18.30;;;;;;5992131;29;20102;-73
2022/07/17 15:16:56;;;;;;;4.68;2.42;;;42.10;19.20;;;;;;5991614;29;20350;-73
2022/07/17 15:19:56;;;;;;;3.35;1.98;;;41.10;20.10;;;;;;5991840;29;20042;-73
2022/07/17 15:22:58;;;;;;;2.60;1.70;;;40.20;20.80;;;;;;5985517;29;20544;-73
2022/07/17 15:25:58;;;;;;;4.10;1.70;;;39.70;21.30;;;;;;5990067;29;21600;-73
2022/07/17 15:29:00;;;;;;;2.78;1.85;;;40.00;21.10;;;;;;5990253;29;20038;-73
2022/07/17 15:32:00;;;;;;;2.25;1.58;;;40.40;20.70;;;;;;6004253;29;20030;-74
2022/07/17 15:35:02;;;;;;;2.13;1.60;;;40.70;20.40;;;;;;6003058;29;20056;-74
2022/07/17 15:38:03;;;;;;;3.80;1.50;;;40.90;20.20;;;;;;5988925;29;20109;-74
2022/07/17 15:41:04;;;;;;;3.20;1.70;;;41.30;20.00;;;;;;5988965;29;20045;-74
2022/07/17 15:44:05;;;;;;;6.03;1.77;;;41.60;19.80;;;;;;5991590;29;20035;-72